sensor_id;sensor_type;location;lat;lon;timestamp;temperature;humidity
9662;DHT22;24982;52.344;12.990;2023-04-25T00:00:08;11.60;99.90
9662;DHT22;24982;52.344;12.990;2023-04-25T00:03:15;11.70;99.90
9662;DHT22;24982;52.344;12.990;2023-04-25T00:06:19;11.50;99.90
9662;DHT22;24982;52.344;12.990;2023-04-25T00:09:21;11.70;99.90
9662;DHT22;24982;52.344;12.990;2023-04-25T00:12:22;11.30;99.90
9662;DHT22;24982;52.344;12.990;2023-04-25T00:15:24;11.50;99.90
9662;DHT22;24982;52.344;12.990;2023-04-25T00:18:28;11.40;99.90
9662;DHT22;24982;52.344;12.990;2023-04-25T00:21:30;11.50;99.90
9662;DHT22;24982;52.344;12.990;2023-04-25T00:24:33;11.40;99.90
9662;DHT22;24982;52.344;12.990;2023-04-25T00:27:35;11.40;99.90
9662;DHT22;24982;52.344;12.990;2023-04-25T00:30:38;11.40;99.90
9662;DHT22;24982;52.344;12.990;2023-04-25T00:33:41;11.50;99.90
9662;DHT22;24982;52.344;12.990;2023-04-25T00:36:43;11.50;99.90
9662;DHT22;24982;52.344;12.990;2023-04-25T00:39:46;11.50;99.90
9662;DHT22;24982;52.344;12.990;2023-04-25T00:42:48;11.50;99.90
9662;DHT22;24982;52.344;12.990;2023-04-25T00:45:51;11.50;99.90
9662;DHT22;24982;52.344;12.990;2023-04-25T00:48:55;11.50;99.90
9662;DHT22;24982;52.344;12.990;2023-04-25T00:51:57;11.60;99.90
9662;DHT22;24982;52.344;12.990;2023-04-25T00:54:59;11.60;99.90
9662;DHT22;24982;52.344;12.990;2023-04-25T00:58:02;11.60;99.90
9662;DHT22;24982;52.344;12.990;2023-04-25T01:01:04;11.60;99.90
9662;DHT22;24982;52.344;12.990;2023-04-25T01:04:08;11.50;99.90
9662;DHT22;24982;52.344;12.990;2023-04-25T01:07:11;11.50;99.90
9662;DHT22;24982;52.344;12.990;2023-04-25T01:10:12;11.60;99.90
9662;DHT22;24982;52.344;12.990;2023-04-25T01:13:15;11.50;99.90
9662;DHT22;24982;52.344;12.990;2023-04-25T01:16:18;11.40;99.90
9662;DHT22;24982;52.344;12.990;2023-04-25T01:19:22;11.40;99.90
9662;DHT22;24982;52.344;12.990;2023-04-25T01:22:26;11.40;99.90
9662;DHT22;24982;52.344;12.990;2023-04-25T01:25:28;11.30;99.90
9662;DHT22;24982;52.344;12.990;2023-04-25T01:28:33;11.30;99.90
9662;DHT22;24982;52.344;12.990;2023-04-25T01:31:36;11.10;99.90
9662;DHT22;24982;52.344;12.990;2023-04-25T01:34:40;11.10;99.90
9662;DHT22;24982;52.344;12.990;2023-04-25T01:37:44;11.30;99.90
9662;DHT22;24982;52.344;12.990;2023-04-25T01:40:46;11.10;99.90
9662;DHT22;24982;52.344;12.990;2023-04-25T01:43:53;11.00;99.90
9662;DHT22;24982;52.344;12.990;2023-04-25T01:46:55;11.10;99.90
9662;DHT22;24982;52.344;12.990;2023-04-25T01:49:57;11.00;99.90
9662;DHT22;24982;52.344;12.990;2023-04-25T01:53:01;11.00;99.90
9662;DHT22;24982;52.344;12.990;2023-04-25T01:56:04;11.00;99.90
9662;DHT22;24982;52.344;12.990;2023-04-25T01:59:09;11.00;99.90
9662;DHT22;24982;52.344;12.990;2023-04-25T02:02:49;10.90;99.90
9662;DHT22;24982;52.344;12.990;2023-04-25T02:06:00;10.80;99.90
9662;DHT22;24982;52.344;12.990;2023-04-25T02:09:04;11.00;99.90
9662;DHT22;24982;52.344;12.990;2023-04-25T02:12:09;11.00;99.90
9662;DHT22;24982;52.344;12.990;2023-04-25T02:15:40;10.90;99.90
9662;DHT22;24982;52.344;12.990;2023-04-25T02:18:49;10.70;99.90
9662;DHT22;24982;52.344;12.990;2023-04-25T02:21:53;10.80;99.90
9662;DHT22;24982;52.344;12.990;2023-04-25T02:24:57;10.80;99.90
9662;DHT22;24982;52.344;12.990;2023-04-25T02:27:59;10.70;99.90
9662;DHT22;24982;52.344;12.990;2023-04-25T02:31:01;10.60;99.90
9662;DHT22;24982;52.344;12.990;2023-04-25T02:34:05;10.70;99.90
9662;DHT22;24982;52.344;12.990;2023-04-25T02:37:10;10.70;99.90
9662;DHT22;24982;52.344;12.990;2023-04-25T02:40:13;10.70;99.90
9662;DHT22;24982;52.344;12.990;2023-04-25T02:43:15;10.90;99.90
9662;DHT22;24982;52.344;12.990;2023-04-25T02:46:17;10.80;99.90
9662;DHT22;24982;52.344;12.990;2023-04-25T02:49:21;11.00;99.90
9662;DHT22;24982;52.344;12.990;2023-04-25T02:52:23;10.90;99.90
9662;DHT22;24982;52.344;12.990;2023-04-25T02:55:34;10.90;99.90
9662;DHT22;24982;52.344;12.990;2023-04-25T02:58:38;10.80;99.90
9662;DHT22;24982;52.344;12.990;2023-04-25T03:01:40;11.00;99.90
9662;DHT22;24982;52.344;12.990;2023-04-25T03:04:42;11.00;99.90
9662;DHT22;24982;52.344;12.990;2023-04-25T03:07:44;10.90;99.90
9662;DHT22;24982;52.344;12.990;2023-04-25T03:10:48;10.90;99.90
9662;DHT22;24982;52.344;12.990;2023-04-25T03:13:51;10.60;99.90
9662;DHT22;24982;52.344;12.990;2023-04-25T03:16:54;11.00;99.90
9662;DHT22;24982;52.344;12.990;2023-04-25T03:19:56;10.90;99.90
9662;DHT22;24982;52.344;12.990;2023-04-25T03:22:59;10.80;99.90
9662;DHT22;24982;52.344;12.990;2023-04-25T03:26:03;10.80;99.90
9662;DHT22;24982;52.344;12.990;2023-04-25T03:29:06;10.70;99.90
9662;DHT22;24982;52.344;12.990;2023-04-25T03:32:09;10.70;99.90
9662;DHT22;24982;52.344;12.990;2023-04-25T03:35:11;10.60;99.90
9662;DHT22;24982;52.344;12.990;2023-04-25T03:38:13;10.60;99.90
9662;DHT22;24982;52.344;12.990;2023-04-25T03:41:17;10.60;99.90
9662;DHT22;24982;52.344;12.990;2023-04-25T03:44:23;10.50;99.90
9662;DHT22;24982;52.344;12.990;2023-04-25T03:47:26;10.60;99.90
9662;DHT22;24982;52.344;12.990;2023-04-25T03:50:28;10.60;99.90
9662;DHT22;24982;52.344;12.990;2023-04-25T03:53:30;10.60;99.90
9662;DHT22;24982;52.344;12.990;2023-04-25T03:56:52;10.60;99.90
9662;DHT22;24982;52.344;12.990;2023-04-25T03:59:57;10.60;99.90
9662;DHT22;24982;52.344;12.990;2023-04-25T04:03:01;10.70;99.90
9662;DHT22;24982;52.344;12.990;2023-04-25T04:06:04;10.50;99.90
9662;DHT22;24982;52.344;12.990;2023-04-25T04:09:10;10.70;99.90
9662;DHT22;24982;52.344;12.990;2023-04-25T04:12:17;10.80;99.90
9662;DHT22;24982;52.344;12.990;2023-04-25T04:15:19;10.80;99.90
9662;DHT22;24982;52.344;12.990;2023-04-25T04:18:23;10.70;99.90
9662;DHT22;24982;52.344;12.990;2023-04-25T04:21:25;10.70;99.90
9662;DHT22;24982;52.344;12.990;2023-04-25T04:24:28;10.70;99.90
9662;DHT22;24982;52.344;12.990;2023-04-25T04:27:38;10.70;99.90
9662;DHT22;24982;52.344;12.990;2023-04-25T04:30:59;10.50;99.90
9662;DHT22;24982;52.344;12.990;2023-04-25T04:34:02;10.70;99.90
9662;DHT22;24982;52.344;12.990;2023-04-25T04:37:04;10.70;99.90
9662;DHT22;24982;52.344;12.990;2023-04-25T04:40:08;10.60;99.90
9662;DHT22;24982;52.344;12.990;2023-04-25T04:43:39;10.60;99.90
9662;DHT22;24982;52.344;12.990;2023-04-25T04:47:03;10.50;99.90
9662;DHT22;24982;52.344;12.990;2023-04-25T04:50:27;10.50;99.90
9662;DHT22;24982;52.344;12.990;2023-04-25T04:53:51;9.80;99.90
9662;DHT22;24982;52.344;12.990;2023-04-25T04:57:16;10.50;99.90
9662;DHT22;24982;52.344;12.990;2023-04-25T05:00:36;10.60;99.90
9662;DHT22;24982;52.344;12.990;2023-04-25T05:03:54;10.80;99.90
9662;DHT22;24982;52.344;12.990;2023-04-25T05:07:22;10.80;99.90
9662;DHT22;24982;52.344;12.990;2023-04-25T05:10:44;10.90;99.90
9662;DHT22;24982;52.344;12.990;2023-04-25T05:14:23;10.70;99.90
9662;DHT22;24982;52.344;12.990;2023-04-25T05:17:47;10.60;99.90
9662;DHT22;24982;52.344;12.990;2023-04-25T05:21:02;10.70;99.90
9662;DHT22;24982;52.344;12.990;2023-04-25T05:24:36;10.50;99.90
9662;DHT22;24982;52.344;12.990;2023-04-25T05:27:58;10.40;99.90
9662;DHT22;24982;52.344;12.990;2023-04-25T05:31:12;10.30;99.90
9662;DHT22;24982;52.344;12.990;2023-04-25T05:34:42;10.40;99.90
9662;DHT22;24982;52.344;12.990;2023-04-25T05:37:54;10.50;99.90
9662;DHT22;24982;52.344;12.990;2023-04-25T05:41:08;10.70;99.90
9662;DHT22;24982;52.344;12.990;2023-04-25T05:44:16;10.60;99.90
9662;DHT22;24982;52.344;12.990;2023-04-25T05:47:24;10.80;99.90
9662;DHT22;24982;52.344;12.990;2023-04-25T05:50:44;11.00;99.90
9662;DHT22;24982;52.344;12.990;2023-04-25T05:54:07;11.00;99.90
9662;DHT22;24982;52.344;12.990;2023-04-25T05:57:19;11.00;99.90
9662;DHT22;24982;52.344;12.990;2023-04-25T06:00:21;11.00;99.90
9662;DHT22;24982;52.344;12.990;2023-04-25T06:03:24;11.10;99.90
9662;DHT22;24982;52.344;12.990;2023-04-25T06:06:28;11.10;99.90
9662;DHT22;24982;52.344;12.990;2023-04-25T06:09:33;11.00;99.90
9662;DHT22;24982;52.344;12.990;2023-04-25T06:12:35;11.00;99.90
9662;DHT22;24982;52.344;12.990;2023-04-25T06:15:39;11.00;99.90
9662;DHT22;24982;52.344;12.990;2023-04-25T06:18:41;10.90;99.90
9662;DHT22;24982;52.344;12.990;2023-04-25T06:21:45;11.00;99.90
9662;DHT22;24982;52.344;12.990;2023-04-25T06:24:47;11.10;99.90
9662;DHT22;24982;52.344;12.990;2023-04-25T06:27:49;11.20;99.90
9662;DHT22;24982;52.344;12.990;2023-04-25T06:30:51;11.30;99.90
9662;DHT22;24982;52.344;12.990;2023-04-25T06:33:54;11.40;99.90
9662;DHT22;24982;52.344;12.990;2023-04-25T06:37:00;11.40;99.90
9662;DHT22;24982;52.344;12.990;2023-04-25T06:40:02;11.30;99.90
9662;DHT22;24982;52.344;12.990;2023-04-25T06:43:04;11.20;99.90
9662;DHT22;24982;52.344;12.990;2023-04-25T06:46:17;11.30;99.90
9662;DHT22;24982;52.344;12.990;2023-04-25T06:49:21;11.20;99.90
9662;DHT22;24982;52.344;12.990;2023-04-25T06:52:25;11.20;99.90
9662;DHT22;24982;52.344;12.990;2023-04-25T06:55:28;11.20;99.90
9662;DHT22;24982;52.344;12.990;2023-04-25T06:58:54;11.20;99.90
9662;DHT22;24982;52.344;12.990;2023-04-25T07:02:02;11.20;99.90
9662;DHT22;24982;52.344;12.990;2023-04-25T07:05:04;11.30;99.90
9662;DHT22;24982;52.344;12.990;2023-04-25T07:08:09;11.10;99.90
9662;DHT22;24982;52.344;12.990;2023-04-25T07:11:12;11.10;99.90
9662;DHT22;24982;52.344;12.990;2023-04-25T07:14:15;11.10;99.90
9662;DHT22;24982;52.344;12.990;2023-04-25T07:17:17;11.30;99.90
9662;DHT22;24982;52.344;12.990;2023-04-25T07:20:19;11.30;99.90
9662;DHT22;24982;52.344;12.990;2023-04-25T07:23:23;11.20;99.90
9662;DHT22;24982;52.344;12.990;2023-04-25T07:26:25;11.10;99.90
9662;DHT22;24982;52.344;12.990;2023-04-25T07:30:07;11.10;99.90
9662;DHT22;24982;52.344;12.990;2023-04-25T07:33:09;11.10;99.90
9662;DHT22;24982;52.344;12.990;2023-04-25T07:36:11;11.20;99.90
9662;DHT22;24982;52.344;12.990;2023-04-25T07:39:15;11.30;99.90
9662;DHT22;24982;52.344;12.990;2023-04-25T07:42:18;11.30;99.90
9662;DHT22;24982;52.344;12.990;2023-04-25T07:45:22;11.30;99.90
9662;DHT22;24982;52.344;12.990;2023-04-25T07:48:25;11.20;99.90
9662;DHT22;24982;52.344;12.990;2023-04-25T07:51:27;11.20;99.90
9662;DHT22;24982;52.344;12.990;2023-04-25T07:54:34;11.20;99.90
9662;DHT22;24982;52.344;12.990;2023-04-25T07:57:45;11.10;99.90
9662;DHT22;24982;52.344;12.990;2023-04-25T08:00:48;11.00;99.90
9662;DHT22;24982;52.344;12.990;2023-04-25T08:04:10;11.00;99.90
9662;DHT22;24982;52.344;12.990;2023-04-25T08:07:27;11.00;99.90
9662;DHT22;24982;52.344;12.990;2023-04-25T08:10:34;11.20;99.90
9662;DHT22;24982;52.344;12.990;2023-04-25T08:13:36;11.20;99.90
9662;DHT22;24982;52.344;12.990;2023-04-25T08:16:38;11.20;99.90
9662;DHT22;24982;52.344;12.990;2023-04-25T08:19:40;11.30;99.90
9662;DHT22;24982;52.344;12.990;2023-04-25T08:22:49;11.30;99.90
9662;DHT22;24982;52.344;12.990;2023-04-25T08:26:13;11.40;99.90
9662;DHT22;24982;52.344;12.990;2023-04-25T08:29:17;11.40;99.90
9662;DHT22;24982;52.344;12.990;2023-04-25T08:32:19;11.50;99.90
9662;DHT22;24982;52.344;12.990;2023-04-25T08:35:37;11.70;99.90
9662;DHT22;24982;52.344;12.990;2023-04-25T08:38:40;11.70;99.90
9662;DHT22;24982;52.344;12.990;2023-04-25T08:41:46;11.80;99.90
9662;DHT22;24982;52.344;12.990;2023-04-25T08:44:48;12.00;99.90
9662;DHT22;24982;52.344;12.990;2023-04-25T08:47:51;12.10;99.90
9662;DHT22;24982;52.344;12.990;2023-04-25T08:50:56;12.20;99.90
9662;DHT22;24982;52.344;12.990;2023-04-25T08:54:08;12.30;99.90
9662;DHT22;24982;52.344;12.990;2023-04-25T08:57:12;12.40;99.90
9662;DHT22;24982;52.344;12.990;2023-04-25T09:00:17;12.50;99.90
9662;DHT22;24982;52.344;12.990;2023-04-25T09:03:21;12.50;99.90
9662;DHT22;24982;52.344;12.990;2023-04-25T09:06:24;12.50;99.90
9662;DHT22;24982;52.344;12.990;2023-04-25T09:09:26;12.50;99.90
9662;DHT22;24982;52.344;12.990;2023-04-25T09:12:30;12.50;99.90
9662;DHT22;24982;52.344;12.990;2023-04-25T09:15:47;12.50;99.90
9662;DHT22;24982;52.344;12.990;2023-04-25T09:19:21;12.60;99.90
9662;DHT22;24982;52.344;12.990;2023-04-25T09:22:24;12.60;99.90
9662;DHT22;24982;52.344;12.990;2023-04-25T09:25:27;12.70;99.90
9662;DHT22;24982;52.344;12.990;2023-04-25T09:28:36;13.00;99.90
9662;DHT22;24982;52.344;12.990;2023-04-25T09:31:39;13.00;99.90
9662;DHT22;24982;52.344;12.990;2023-04-25T09:34:44;12.90;99.90
9662;DHT22;24982;52.344;12.990;2023-04-25T09:37:48;12.90;99.90
9662;DHT22;24982;52.344;12.990;2023-04-25T09:41:23;12.80;99.90
9662;DHT22;24982;52.344;12.990;2023-04-25T09:44:29;13.00;99.90
9662;DHT22;24982;52.344;12.990;2023-04-25T09:47:32;13.10;99.90
9662;DHT22;24982;52.344;12.990;2023-04-25T09:50:40;13.10;99.90
9662;DHT22;24982;52.344;12.990;2023-04-25T09:53:46;13.20;99.90
9662;DHT22;24982;52.344;12.990;2023-04-25T09:57:11;13.10;99.90
9662;DHT22;24982;52.344;12.990;2023-04-25T10:00:16;13.00;99.90
9662;DHT22;24982;52.344;12.990;2023-04-25T10:03:19;13.00;99.90
9662;DHT22;24982;52.344;12.990;2023-04-25T10:06:36;13.00;99.90
9662;DHT22;24982;52.344;12.990;2023-04-25T10:09:40;12.90;99.90
9662;DHT22;24982;52.344;12.990;2023-04-25T10:12:42;12.80;99.90
9662;DHT22;24982;52.344;12.990;2023-04-25T10:15:47;12.90;99.90
9662;DHT22;24982;52.344;12.990;2023-04-25T10:18:50;12.90;99.90
9662;DHT22;24982;52.344;12.990;2023-04-25T10:21:55;12.90;99.90
9662;DHT22;24982;52.344;12.990;2023-04-25T10:24:58;12.90;99.90
9662;DHT22;24982;52.344;12.990;2023-04-25T10:28:02;12.90;99.90
9662;DHT22;24982;52.344;12.990;2023-04-25T10:31:08;12.80;99.90
9662;DHT22;24982;52.344;12.990;2023-04-25T10:34:10;12.70;99.90
9662;DHT22;24982;52.344;12.990;2023-04-25T10:37:12;12.60;99.90
9662;DHT22;24982;52.344;12.990;2023-04-25T10:40:21;12.60;99.90
9662;DHT22;24982;52.344;12.990;2023-04-25T10:43:40;12.60;99.90
9662;DHT22;24982;52.344;12.990;2023-04-25T10:46:44;12.50;99.90
9662;DHT22;24982;52.344;12.990;2023-04-25T10:49:50;12.50;99.90
9662;DHT22;24982;52.344;12.990;2023-04-25T10:52:53;12.40;99.90
9662;DHT22;24982;52.344;12.990;2023-04-25T10:55:55;12.40;99.90
9662;DHT22;24982;52.344;12.990;2023-04-25T10:59:07;12.40;99.90
9662;DHT22;24982;52.344;12.990;2023-04-25T11:02:12;12.50;99.90
9662;DHT22;24982;52.344;12.990;2023-04-25T11:05:22;12.60;99.90
9662;DHT22;24982;52.344;12.990;2023-04-25T11:08:47;12.60;99.90
9662;DHT22;24982;52.344;12.990;2023-04-25T11:11:53;12.60;99.90
9662;DHT22;24982;52.344;12.990;2023-04-25T11:14:59;12.50;99.90
9662;DHT22;24982;52.344;12.990;2023-04-25T11:18:03;12.50;99.90
9662;DHT22;24982;52.344;12.990;2023-04-25T11:21:06;12.40;99.90
9662;DHT22;24982;52.344;12.990;2023-04-25T11:24:08;12.30;99.90
9662;DHT22;24982;52.344;12.990;2023-04-25T11:27:10;12.30;99.90
9662;DHT22;24982;52.344;12.990;2023-04-25T11:30:13;12.30;99.90
9662;DHT22;24982;52.344;12.990;2023-04-25T11:36:22;12.30;99.90
9662;DHT22;24982;52.344;12.990;2023-04-25T11:39:24;12.30;99.90
9662;DHT22;24982;52.344;12.990;2023-04-25T11:42:26;12.20;99.90
9662;DHT22;24982;52.344;12.990;2023-04-25T11:45:29;12.10;99.90
9662;DHT22;24982;52.344;12.990;2023-04-25T11:48:38;12.20;99.90
9662;DHT22;24982;52.344;12.990;2023-04-25T11:51:40;12.20;99.90
9662;DHT22;24982;52.344;12.990;2023-04-25T11:54:44;12.20;99.90
9662;DHT22;24982;52.344;12.990;2023-04-25T11:57:48;12.20;99.90
9662;DHT22;24982;52.344;12.990;2023-04-25T12:00:51;12.30;99.90
9662;DHT22;24982;52.344;12.990;2023-04-25T12:03:54;12.40;99.90
9662;DHT22;24982;52.344;12.990;2023-04-25T12:06:56;12.50;99.90
9662;DHT22;24982;52.344;12.990;2023-04-25T12:09:58;12.60;99.90
9662;DHT22;24982;52.344;12.990;2023-04-25T12:13:00;12.70;99.90
9662;DHT22;24982;52.344;12.990;2023-04-25T12:16:02;12.80;99.90
9662;DHT22;24982;52.344;12.990;2023-04-25T12:19:05;12.90;99.90
9662;DHT22;24982;52.344;12.990;2023-04-25T12:22:20;13.00;99.90
9662;DHT22;24982;52.344;12.990;2023-04-25T12:25:35;12.80;99.90
9662;DHT22;24982;52.344;12.990;2023-04-25T12:28:38;13.00;99.90
9662;DHT22;24982;52.344;12.990;2023-04-25T12:31:40;12.90;99.90
9662;DHT22;24982;52.344;12.990;2023-04-25T12:34:44;12.80;99.90
9662;DHT22;24982;52.344;12.990;2023-04-25T12:37:46;12.80;99.90
9662;DHT22;24982;52.344;12.990;2023-04-25T12:40:49;12.70;99.90
9662;DHT22;24982;52.344;12.990;2023-04-25T12:43:51;12.60;99.90
9662;DHT22;24982;52.344;12.990;2023-04-25T12:46:53;12.50;99.90
9662;DHT22;24982;52.344;12.990;2023-04-25T12:49:56;12.40;99.90
9662;DHT22;24982;52.344;12.990;2023-04-25T12:52:58;12.30;99.90
9662;DHT22;24982;52.344;12.990;2023-04-25T12:56:00;12.20;99.90
9662;DHT22;24982;52.344;12.990;2023-04-25T12:59:03;12.20;99.90
9662;DHT22;24982;52.344;12.990;2023-04-25T13:02:06;12.30;99.90
9662;DHT22;24982;52.344;12.990;2023-04-25T13:05:09;12.30;99.90
9662;DHT22;24982;52.344;12.990;2023-04-25T13:08:11;12.30;99.90
9662;DHT22;24982;52.344;12.990;2023-04-25T13:11:14;12.30;99.90
9662;DHT22;24982;52.344;12.990;2023-04-25T13:14:16;12.40;99.90
9662;DHT22;24982;52.344;12.990;2023-04-25T13:17:18;12.40;99.90
9662;DHT22;24982;52.344;12.990;2023-04-25T13:20:21;12.50;99.90
9662;DHT22;24982;52.344;12.990;2023-04-25T13:23:25;12.60;99.90
9662;DHT22;24982;52.344;12.990;2023-04-25T13:26:27;12.50;99.90
9662;DHT22;24982;52.344;12.990;2023-04-25T13:29:29;12.60;99.90
9662;DHT22;24982;52.344;12.990;2023-04-25T13:32:32;12.60;99.90
9662;DHT22;24982;52.344;12.990;2023-04-25T13:35:37;12.60;99.90
9662;DHT22;24982;52.344;12.990;2023-04-25T13:38:39;12.60;99.90
9662;DHT22;24982;52.344;12.990;2023-04-25T13:41:44;12.50;99.90
9662;DHT22;24982;52.344;12.990;2023-04-25T13:44:46;12.70;99.90
9662;DHT22;24982;52.344;12.990;2023-04-25T13:47:48;12.80;99.90
9662;DHT22;24982;52.344;12.990;2023-04-25T13:50:51;12.80;99.90
9662;DHT22;24982;52.344;12.990;2023-04-25T13:53:53;12.70;99.90
9662;DHT22;24982;52.344;12.990;2023-04-25T13:56:55;12.70;99.90
9662;DHT22;24982;52.344;12.990;2023-04-25T13:59:59;12.50;99.90
9662;DHT22;24982;52.344;12.990;2023-04-25T14:03:07;12.40;99.90
9662;DHT22;24982;52.344;12.990;2023-04-25T14:06:10;12.30;99.90
9662;DHT22;24982;52.344;12.990;2023-04-25T14:09:13;12.40;99.90
9662;DHT22;24982;52.344;12.990;2023-04-25T14:12:16;12.30;99.90
9662;DHT22;24982;52.344;12.990;2023-04-25T14:15:18;12.40;99.90
9662;DHT22;24982;52.344;12.990;2023-04-25T14:18:20;12.30;99.90
9662;DHT22;24982;52.344;12.990;2023-04-25T14:21:24;12.20;99.90
9662;DHT22;24982;52.344;12.990;2023-04-25T14:24:27;12.10;99.90
9662;DHT22;24982;52.344;12.990;2023-04-25T14:27:29;12.10;99.90
9662;DHT22;24982;52.344;12.990;2023-04-25T14:30:31;12.10;99.90
9662;DHT22;24982;52.344;12.990;2023-04-25T14:33:33;12.10;99.90
9662;DHT22;24982;52.344;12.990;2023-04-25T14:36:37;12.10;99.90
9662;DHT22;24982;52.344;12.990;2023-04-25T14:39:39;12.20;99.90
9662;DHT22;24982;52.344;12.990;2023-04-25T14:42:41;12.30;99.90
9662;DHT22;24982;52.344;12.990;2023-04-25T14:45:43;12.30;99.90
9662;DHT22;24982;52.344;12.990;2023-04-25T14:48:45;12.20;99.90
9662;DHT22;24982;52.344;12.990;2023-04-25T14:51:49;12.20;99.90
9662;DHT22;24982;52.344;12.990;2023-04-25T14:54:52;12.10;99.90
9662;DHT22;24982;52.344;12.990;2023-04-25T14:57:54;12.10;99.90
9662;DHT22;24982;52.344;12.990;2023-04-25T15:00:56;12.10;99.90
9662;DHT22;24982;52.344;12.990;2023-04-25T15:03:58;12.20;99.90
9662;DHT22;24982;52.344;12.990;2023-04-25T15:07:02;12.20;99.90
9662;DHT22;24982;52.344;12.990;2023-04-25T15:10:05;12.20;99.90
9662;DHT22;24982;52.344;12.990;2023-04-25T15:13:11;12.20;99.90
9662;DHT22;24982;52.344;12.990;2023-04-25T15:16:13;12.20;99.90
9662;DHT22;24982;52.344;12.990;2023-04-25T15:19:15;12.20;99.90
9662;DHT22;24982;52.344;12.990;2023-04-25T15:22:18;12.10;99.90
9662;DHT22;24982;52.344;12.990;2023-04-25T15:25:21;12.10;99.90
9662;DHT22;24982;52.344;12.990;2023-04-25T15:28:22;12.10;99.90
9662;DHT22;24982;52.344;12.990;2023-04-25T15:31:25;12.10;99.90
9662;DHT22;24982;52.344;12.990;2023-04-25T15:34:27;12.10;99.90
9662;DHT22;24982;52.344;12.990;2023-04-25T15:37:30;12.00;99.90
9662;DHT22;24982;52.344;12.990;2023-04-25T15:40:32;12.00;99.90
9662;DHT22;24982;52.344;12.990;2023-04-25T15:43:34;12.00;99.90
9662;DHT22;24982;52.344;12.990;2023-04-25T15:46:38;12.00;99.90
9662;DHT22;24982;52.344;12.990;2023-04-25T15:49:40;12.10;99.90
9662;DHT22;24982;52.344;12.990;2023-04-25T15:52:44;12.10;99.90
9662;DHT22;24982;52.344;12.990;2023-04-25T15:55:46;12.10;99.90
9662;DHT22;24982;52.344;12.990;2023-04-25T15:58:48;12.00;99.90
9662;DHT22;24982;52.344;12.990;2023-04-25T16:01:51;12.10;99.90
9662;DHT22;24982;52.344;12.990;2023-04-25T16:04:53;12.00;99.90
9662;DHT22;24982;52.344;12.990;2023-04-25T16:07:56;12.00;99.90
9662;DHT22;24982;52.344;12.990;2023-04-25T16:10:59;12.00;99.90
9662;DHT22;24982;52.344;12.990;2023-04-25T16:14:02;12.00;99.90
9662;DHT22;24982;52.344;12.990;2023-04-25T16:17:04;12.00;99.90
9662;DHT22;24982;52.344;12.990;2023-04-25T16:20:07;11.80;99.90
9662;DHT22;24982;52.344;12.990;2023-04-25T16:23:13;11.80;99.90
9662;DHT22;24982;52.344;12.990;2023-04-25T16:26:15;11.90;99.90
9662;DHT22;24982;52.344;12.990;2023-04-25T16:29:17;11.80;99.90
9662;DHT22;24982;52.344;12.990;2023-04-25T16:32:19;11.70;99.90
9662;DHT22;24982;52.344;12.990;2023-04-25T16:35:21;11.60;99.90
9662;DHT22;24982;52.344;12.990;2023-04-25T16:38:25;11.50;99.90
9662;DHT22;24982;52.344;12.990;2023-04-25T16:41:27;11.50;99.90
9662;DHT22;24982;52.344;12.990;2023-04-25T16:44:29;11.50;99.90
9662;DHT22;24982;52.344;12.990;2023-04-25T16:47:31;11.50;99.90
9662;DHT22;24982;52.344;12.990;2023-04-25T16:50:33;11.50;99.90
9662;DHT22;24982;52.344;12.990;2023-04-25T16:53:36;11.40;99.90
9662;DHT22;24982;52.344;12.990;2023-04-25T16:56:38;11.50;99.90
9662;DHT22;24982;52.344;12.990;2023-04-25T16:59:41;11.50;99.90
9662;DHT22;24982;52.344;12.990;2023-04-25T17:02:43;11.50;99.90
9662;DHT22;24982;52.344;12.990;2023-04-25T17:05:45;11.50;99.90
9662;DHT22;24982;52.344;12.990;2023-04-25T17:08:49;11.40;99.90
9662;DHT22;24982;52.344;12.990;2023-04-25T17:11:51;11.40;99.90
9662;DHT22;24982;52.344;12.990;2023-04-25T17:14:52;11.40;99.90
9662;DHT22;24982;52.344;12.990;2023-04-25T17:17:54;11.50;99.90
9662;DHT22;24982;52.344;12.990;2023-04-25T17:20:56;11.50;99.90
9662;DHT22;24982;52.344;12.990;2023-04-25T17:24:00;11.50;99.90
9662;DHT22;24982;52.344;12.990;2023-04-25T17:27:05;11.50;99.90
9662;DHT22;24982;52.344;12.990;2023-04-25T17:30:08;11.50;99.90
9662;DHT22;24982;52.344;12.990;2023-04-25T17:33:10;11.40;99.90
9662;DHT22;24982;52.344;12.990;2023-04-25T17:36:12;11.40;99.90
9662;DHT22;24982;52.344;12.990;2023-04-25T17:39:16;11.50;99.90
9662;DHT22;24982;52.344;12.990;2023-04-25T17:42:18;11.40;99.90
9662;DHT22;24982;52.344;12.990;2023-04-25T17:45:20;11.30;99.90
9662;DHT22;24982;52.344;12.990;2023-04-25T17:48:22;11.10;99.90
9662;DHT22;24982;52.344;12.990;2023-04-25T17:51:24;11.20;99.90
9662;DHT22;24982;52.344;12.990;2023-04-25T17:54:27;11.20;99.90
9662;DHT22;24982;52.344;12.990;2023-04-25T17:57:29;11.20;99.90
9662;DHT22;24982;52.344;12.990;2023-04-25T18:00:31;11.20;99.90
9662;DHT22;24982;52.344;12.990;2023-04-25T18:03:34;11.20;99.90
9662;DHT22;24982;52.344;12.990;2023-04-25T18:06:37;11.10;99.90
9662;DHT22;24982;52.344;12.990;2023-04-25T18:09:41;11.10;99.90
9662;DHT22;24982;52.344;12.990;2023-04-25T18:12:43;11.10;99.90
9662;DHT22;24982;52.344;12.990;2023-04-25T18:15:45;11.10;99.90
9662;DHT22;24982;52.344;12.990;2023-04-25T18:18:47;11.00;99.90
9662;DHT22;24982;52.344;12.990;2023-04-25T18:21:53;10.90;99.90
9662;DHT22;24982;52.344;12.990;2023-04-25T18:24:57;10.80;99.90
9662;DHT22;24982;52.344;12.990;2023-04-25T18:28:00;10.90;99.90
9662;DHT22;24982;52.344;12.990;2023-04-25T18:31:02;10.90;99.90
9662;DHT22;24982;52.344;12.990;2023-04-25T18:34:04;10.90;99.90
9662;DHT22;24982;52.344;12.990;2023-04-25T18:37:06;10.80;99.90
9662;DHT22;24982;52.344;12.990;2023-04-25T18:40:10;10.80;99.90
9662;DHT22;24982;52.344;12.990;2023-04-25T18:43:15;10.80;99.90
9662;DHT22;24982;52.344;12.990;2023-04-25T18:46:17;10.80;99.90
9662;DHT22;24982;52.344;12.990;2023-04-25T18:49:22;10.90;99.90
9662;DHT22;24982;52.344;12.990;2023-04-25T18:52:23;10.80;99.90
9662;DHT22;24982;52.344;12.990;2023-04-25T18:55:27;10.90;99.90
9662;DHT22;24982;52.344;12.990;2023-04-25T18:58:30;10.80;99.90
9662;DHT22;24982;52.344;12.990;2023-04-25T19:01:32;10.70;99.90
9662;DHT22;24982;52.344;12.990;2023-04-25T19:04:34;10.70;99.90
9662;DHT22;24982;52.344;12.990;2023-04-25T19:07:36;10.60;99.90
9662;DHT22;24982;52.344;12.990;2023-04-25T19:10:41;10.60;99.90
9662;DHT22;24982;52.344;12.990;2023-04-25T19:13:43;10.50;99.90
9662;DHT22;24982;52.344;12.990;2023-04-25T19:16:45;10.40;99.90
9662;DHT22;24982;52.344;12.990;2023-04-25T19:19:47;10.60;99.90
9662;DHT22;24982;52.344;12.990;2023-04-25T19:22:49;10.50;99.90
9662;DHT22;24982;52.344;12.990;2023-04-25T19:25:52;10.40;99.90
9662;DHT22;24982;52.344;12.990;2023-04-25T19:29:06;10.30;99.90
9662;DHT22;24982;52.344;12.990;2023-04-25T19:32:08;10.30;99.90